PAL422 RPLL-RJTT
Flight info
| Callsign | PAL422 |
|---|---|
| Flight time | N/A |
| Altitude | 37000 |
| Route | JOM2R JOM G467 ENDAX DCT TILLY A339 KEITH DCT TOMOL/N0487F380 B586 IPRET/N0482F390 B586 SABRI Y873 FITTO Y87 TOPIT Y875 AROSA |
| Aircraft | B77W/H-SDE1E2E3FGHIJ2J3J4J5M1RWXY/LB1D1 |
Departure
| Time | N/A |
|---|---|
| Airport | Ninoy Aquino International Airport (RPLL) |
Arrival
| Time | 2026-05-07 10:17 |
|---|---|
| Airport | Tokyo Haneda International Airport (RJTT) |
| Time | Latitude | Longitude | Altitude | Speed | Heading |
|---|---|---|---|---|---|
| 2026-05-07 07:23 | 17.92877 | 134.14375 | 37001 ft | 488 kts | 13° |
| 2026-05-07 07:24 | 17.99471 | 134.16068 | 37001 ft | 488 kts | 13° |
| 2026-05-07 07:24 | 18.06065 | 134.17762 | 37001 ft | 487 kts | 13° |
| 2026-05-07 07:25 | 18.15960 | 134.20306 | 37002 ft | 488 kts | 13° |
| 2026-05-07 07:26 | 18.22558 | 134.22005 | 37002 ft | 488 kts | 13° |
| 2026-05-07 07:26 | 18.29116 | 134.23694 | 37002 ft | 488 kts | 13° |
| 2026-05-07 07:27 | 18.35715 | 134.25395 | 37002 ft | 488 kts | 13° |
| 2026-05-07 07:27 | 18.42319 | 134.27099 | 37002 ft | 488 kts | 13° |
| 2026-05-07 07:28 | 18.48926 | 134.28805 | 37002 ft | 489 kts | 13° |
| 2026-05-07 07:28 | 18.55532 | 134.30512 | 37002 ft | 489 kts | 13° |
| 2026-05-07 07:29 | 18.62139 | 134.32221 | 37001 ft | 489 kts | 13° |
| 2026-05-07 07:29 | 18.68751 | 134.33932 | 37001 ft | 489 kts | 13° |
| 2026-05-07 07:30 | 18.75318 | 134.35633 | 37001 ft | 489 kts | 13° |
| 2026-05-07 07:30 | 18.81921 | 134.37345 | 37001 ft | 489 kts | 13° |
| 2026-05-07 07:31 | 18.88526 | 134.39058 | 37001 ft | 489 kts | 13° |
| 2026-05-07 07:31 | 18.95137 | 134.40775 | 37001 ft | 489 kts | 13° |
| 2026-05-07 07:32 | 19.01743 | 134.42492 | 37001 ft | 489 kts | 13° |
| 2026-05-07 07:32 | 19.08354 | 134.44211 | 37001 ft | 488 kts | 13° |
| 2026-05-07 07:33 | 19.14909 | 134.45917 | 37001 ft | 488 kts | 13° |
| 2026-05-07 07:33 | 19.21518 | 134.47639 | 37001 ft | 488 kts | 13° |
| 2026-05-07 07:34 | 19.28120 | 134.49360 | 37001 ft | 488 kts | 13° |
| 2026-05-07 07:34 | 19.34720 | 134.51083 | 37001 ft | 488 kts | 13° |
| 2026-05-07 07:35 | 19.41334 | 134.52810 | 37001 ft | 488 kts | 13° |
| 2026-05-07 07:35 | 19.47933 | 134.54535 | 37001 ft | 488 kts | 13° |
| 2026-05-07 07:36 | 19.54532 | 134.56261 | 37001 ft | 488 kts | 13° |
| 2026-05-07 07:36 | 19.61088 | 134.57978 | 37001 ft | 489 kts | 14° |
| 2026-05-07 07:37 | 19.67694 | 134.59709 | 37001 ft | 489 kts | 14° |
| 2026-05-07 07:37 | 19.74294 | 134.61440 | 37001 ft | 489 kts | 14° |
| 2026-05-07 07:38 | 19.80905 | 134.63175 | 37001 ft | 489 kts | 14° |
| 2026-05-07 07:38 | 19.87507 | 134.64910 | 37001 ft | 489 kts | 14° |
| 2026-05-07 07:39 | 19.94109 | 134.66645 | 37001 ft | 489 kts | 14° |
| 2026-05-07 07:39 | 20.00668 | 134.68372 | 37001 ft | 489 kts | 14° |
| 2026-05-07 07:40 | 20.07274 | 134.70111 | 37001 ft | 489 kts | 14° |
| 2026-05-07 07:40 | 20.13873 | 134.71851 | 37001 ft | 489 kts | 14° |
| 2026-05-07 07:41 | 20.20493 | 134.73598 | 37001 ft | 489 kts | 14° |
| 2026-05-07 07:41 | 20.27093 | 134.75341 | 37001 ft | 489 kts | 14° |
| 2026-05-07 07:42 | 20.33698 | 134.77087 | 37001 ft | 489 kts | 14° |
| 2026-05-07 07:42 | 20.40257 | 134.78822 | 37001 ft | 489 kts | 14° |
| 2026-05-07 07:43 | 20.46859 | 134.80570 | 37001 ft | 489 kts | 14° |
| 2026-05-07 07:43 | 20.53460 | 134.82319 | 37001 ft | 489 kts | 14° |
| 2026-05-07 07:44 | 20.60063 | 134.84071 | 37001 ft | 489 kts | 14° |
| 2026-05-07 07:44 | 20.66662 | 134.85823 | 37001 ft | 489 kts | 14° |
| 2026-05-07 07:45 | 20.73266 | 134.87578 | 37001 ft | 489 kts | 14° |
| 2026-05-07 07:45 | 20.79865 | 134.89333 | 37001 ft | 489 kts | 14° |
| 2026-05-07 07:46 | 20.86468 | 134.91092 | 37001 ft | 489 kts | 14° |
| 2026-05-07 07:46 | 20.93077 | 134.92853 | 37001 ft | 489 kts | 14° |
| 2026-05-07 07:47 | 20.99472 | 134.95128 | 37002 ft | 489 kts | 25° |
| 2026-05-07 07:47 | 21.05305 | 134.98833 | 37000 ft | 488 kts | 37° |
| 2026-05-07 07:48 | 21.10706 | 135.03248 | 37004 ft | 489 kts | 38° |
| 2026-05-07 07:48 | 21.16086 | 135.07712 | 37001 ft | 489 kts | 37° |
| 2026-05-07 07:49 | 21.21484 | 135.12147 | 37002 ft | 489 kts | 37° |
| 2026-05-07 07:49 | 21.26906 | 135.16568 | 37002 ft | 489 kts | 37° |
| 2026-05-07 07:50 | 21.32340 | 135.20993 | 37001 ft | 489 kts | 37° |
| 2026-05-07 07:50 | 21.37736 | 135.25392 | 37001 ft | 490 kts | 37° |
| 2026-05-07 07:51 | 21.43161 | 135.29820 | 37001 ft | 489 kts | 37° |
| 2026-05-07 07:51 | 21.48578 | 135.34247 | 37001 ft | 489 kts | 37° |
| 2026-05-07 07:52 | 21.54001 | 135.38685 | 37001 ft | 489 kts | 37° |
| 2026-05-07 07:52 | 21.59417 | 135.43120 | 37001 ft | 489 kts | 37° |
| 2026-05-07 07:53 | 21.64830 | 135.47557 | 37001 ft | 489 kts | 37° |
| 2026-05-07 07:53 | 21.70208 | 135.51969 | 37001 ft | 489 kts | 37° |
| 2026-05-07 07:54 | 21.75622 | 135.56415 | 37001 ft | 489 kts | 37° |
| 2026-05-07 07:54 | 21.81032 | 135.60863 | 37001 ft | 489 kts | 37° |
| 2026-05-07 07:55 | 21.86436 | 135.65310 | 37001 ft | 489 kts | 37° |
| 2026-05-07 07:55 | 21.91840 | 135.69761 | 37001 ft | 489 kts | 37° |
| 2026-05-07 07:56 | 21.97243 | 135.74216 | 37001 ft | 489 kts | 37° |
| 2026-05-07 07:56 | 22.02647 | 135.78676 | 37001 ft | 489 kts | 37° |
| 2026-05-07 07:57 | 22.08056 | 135.83144 | 37001 ft | 489 kts | 37° |
| 2026-05-07 07:57 | 22.13463 | 135.87615 | 37001 ft | 489 kts | 37° |
| 2026-05-07 07:58 | 22.18837 | 135.92063 | 37001 ft | 489 kts | 37° |
| 2026-05-07 07:58 | 22.24241 | 135.96541 | 37001 ft | 489 kts | 37° |
| 2026-05-07 07:59 | 22.29640 | 136.01019 | 37001 ft | 489 kts | 37° |
| 2026-05-07 07:59 | 22.35037 | 136.05500 | 37001 ft | 489 kts | 37° |
| 2026-05-07 08:00 | 22.39523 | 136.09228 | 37001 ft | 489 kts | 37° |
| 2026-05-07 08:00 | 22.44920 | 136.13717 | 37001 ft | 489 kts | 37° |
| 2026-05-07 08:01 | 22.50320 | 136.18213 | 37001 ft | 489 kts | 37° |
| 2026-05-07 08:01 | 22.55716 | 136.22710 | 37001 ft | 489 kts | 37° |
| 2026-05-07 08:02 | 22.61112 | 136.27212 | 37001 ft | 489 kts | 38° |
| 2026-05-07 08:02 | 22.66505 | 136.31716 | 37001 ft | 489 kts | 38° |
| 2026-05-07 08:03 | 22.71861 | 136.36193 | 37001 ft | 489 kts | 38° |
| 2026-05-07 08:03 | 22.77250 | 136.40703 | 37001 ft | 489 kts | 38° |
| 2026-05-07 08:04 | 22.82635 | 136.45214 | 37001 ft | 489 kts | 38° |
| 2026-05-07 08:04 | 22.88018 | 136.49728 | 37001 ft | 489 kts | 38° |
| 2026-05-07 08:05 | 22.93404 | 136.54249 | 37001 ft | 489 kts | 38° |
| 2026-05-07 08:05 | 22.98791 | 136.58775 | 37001 ft | 489 kts | 38° |
| 2026-05-07 08:06 | 23.04178 | 136.63307 | 37001 ft | 489 kts | 38° |
| 2026-05-07 08:06 | 23.09530 | 136.67813 | 37001 ft | 489 kts | 38° |
| 2026-05-07 08:07 | 23.14909 | 136.72347 | 37001 ft | 489 kts | 38° |
| 2026-05-07 08:07 | 23.20292 | 136.76890 | 37001 ft | 489 kts | 38° |
| 2026-05-07 08:08 | 23.25679 | 136.81439 | 37001 ft | 489 kts | 38° |
| 2026-05-07 08:08 | 23.31055 | 136.85985 | 37001 ft | 489 kts | 38° |
| 2026-05-07 08:09 | 23.36425 | 136.90531 | 37001 ft | 489 kts | 38° |
| 2026-05-07 08:09 | 23.41802 | 136.95087 | 37001 ft | 489 kts | 38° |
| 2026-05-07 08:10 | 23.47146 | 136.99620 | 37001 ft | 489 kts | 38° |
| 2026-05-07 08:10 | 23.52518 | 137.04182 | 37001 ft | 489 kts | 38° |
| 2026-05-07 08:11 | 23.57890 | 137.08748 | 37001 ft | 489 kts | 38° |
| 2026-05-07 08:11 | 23.63263 | 137.13320 | 37001 ft | 489 kts | 38° |
| 2026-05-07 08:12 | 23.68628 | 137.17890 | 37001 ft | 489 kts | 38° |
| 2026-05-07 08:12 | 23.73997 | 137.22469 | 37001 ft | 489 kts | 38° |
| 2026-05-07 08:13 | 23.79364 | 137.27051 | 37001 ft | 489 kts | 38° |
| 2026-05-07 08:13 | 23.84735 | 137.31641 | 37001 ft | 489 kts | 38° |
| 2026-05-07 08:14 | 23.90062 | 137.36198 | 37001 ft | 489 kts | 38° |
| 2026-05-07 08:14 | 23.95422 | 137.40789 | 37001 ft | 489 kts | 38° |
| 2026-05-07 08:15 | 24.00786 | 137.45388 | 37001 ft | 489 kts | 38° |
| 2026-05-07 08:15 | 24.06150 | 137.49992 | 37001 ft | 489 kts | 38° |
| 2026-05-07 08:16 | 24.11508 | 137.54596 | 37001 ft | 489 kts | 38° |
| 2026-05-07 08:16 | 24.16863 | 137.59202 | 37001 ft | 489 kts | 38° |
| 2026-05-07 08:17 | 24.22187 | 137.63787 | 37001 ft | 489 kts | 38° |
| 2026-05-07 08:17 | 24.27544 | 137.68406 | 37001 ft | 489 kts | 38° |
| 2026-05-07 08:18 | 24.32904 | 137.73032 | 37001 ft | 489 kts | 38° |
| 2026-05-07 08:18 | 24.38223 | 137.77627 | 37001 ft | 489 kts | 38° |
| 2026-05-07 08:19 | 24.43574 | 137.82255 | 37001 ft | 489 kts | 38° |
| 2026-05-07 08:19 | 24.48926 | 137.86890 | 37001 ft | 489 kts | 38° |
| 2026-05-07 08:20 | 24.54272 | 137.91524 | 37001 ft | 490 kts | 38° |
| 2026-05-07 08:20 | 24.59618 | 137.96164 | 37001 ft | 490 kts | 38° |
| 2026-05-07 08:21 | 24.64963 | 138.00808 | 37001 ft | 490 kts | 38° |
| 2026-05-07 08:21 | 24.70302 | 138.05451 | 37001 ft | 490 kts | 38° |
| 2026-05-07 08:22 | 24.75638 | 138.10098 | 37001 ft | 490 kts | 38° |
| 2026-05-07 08:22 | 24.80989 | 138.14762 | 37001 ft | 490 kts | 38° |
| 2026-05-07 08:23 | 24.86328 | 138.19423 | 37001 ft | 490 kts | 38° |
| 2026-05-07 08:23 | 24.91636 | 138.24060 | 37001 ft | 490 kts | 38° |
| 2026-05-07 08:24 | 24.96973 | 138.28729 | 37001 ft | 490 kts | 38° |
| 2026-05-07 08:24 | 25.02309 | 138.33401 | 37001 ft | 490 kts | 38° |
| 2026-05-07 08:25 | 25.07643 | 138.38078 | 37001 ft | 490 kts | 38° |
| 2026-05-07 08:25 | 25.12971 | 138.42755 | 37001 ft | 490 kts | 38° |
| 2026-05-07 08:26 | 25.20968 | 138.49784 | 37001 ft | 490 kts | 38° |
| 2026-05-07 08:26 | 25.26298 | 138.54476 | 37001 ft | 490 kts | 38° |
| 2026-05-07 08:27 | 25.31590 | 138.59139 | 37001 ft | 490 kts | 38° |
| 2026-05-07 08:27 | 25.36920 | 138.63842 | 37001 ft | 490 kts | 38° |
| 2026-05-07 08:28 | 25.42246 | 138.68546 | 37001 ft | 490 kts | 38° |
| 2026-05-07 08:28 | 25.47564 | 138.73250 | 37001 ft | 490 kts | 38° |
| 2026-05-07 08:29 | 25.52886 | 138.77962 | 37001 ft | 490 kts | 38° |
| 2026-05-07 08:29 | 25.58203 | 138.82675 | 37001 ft | 490 kts | 39° |
| 2026-05-07 08:30 | 25.63492 | 138.87368 | 37001 ft | 490 kts | 39° |
| 2026-05-07 08:30 | 25.68813 | 138.92096 | 37001 ft | 490 kts | 39° |
| 2026-05-07 08:31 | 25.74130 | 138.96826 | 37001 ft | 490 kts | 39° |
| 2026-05-07 08:31 | 25.79451 | 139.01565 | 37001 ft | 490 kts | 39° |
| 2026-05-07 08:32 | 25.84731 | 139.06273 | 37001 ft | 490 kts | 39° |
| 2026-05-07 08:32 | 25.90042 | 139.11014 | 37001 ft | 490 kts | 39° |
| 2026-05-07 08:33 | 25.95353 | 139.15761 | 37001 ft | 490 kts | 39° |
| 2026-05-07 08:33 | 26.00664 | 139.20513 | 37001 ft | 490 kts | 39° |
| 2026-05-07 08:34 | 26.05978 | 139.25274 | 37001 ft | 490 kts | 39° |
| 2026-05-07 08:34 | 26.11289 | 139.30039 | 37001 ft | 490 kts | 39° |
| 2026-05-07 08:35 | 26.16556 | 139.34768 | 37001 ft | 490 kts | 39° |
| 2026-05-07 08:35 | 26.21862 | 139.39540 | 37001 ft | 490 kts | 39° |
| 2026-05-07 08:36 | 26.27161 | 139.44310 | 37001 ft | 490 kts | 39° |
| 2026-05-07 08:36 | 26.32465 | 139.49090 | 37001 ft | 490 kts | 39° |
| 2026-05-07 08:37 | 26.37763 | 139.53872 | 37001 ft | 490 kts | 39° |
| 2026-05-07 08:37 | 26.43064 | 139.58661 | 37001 ft | 490 kts | 39° |
| 2026-05-07 08:38 | 26.48330 | 139.63425 | 37001 ft | 490 kts | 39° |
| 2026-05-07 08:38 | 26.53621 | 139.68217 | 37001 ft | 490 kts | 39° |
| 2026-05-07 08:39 | 26.58912 | 139.73015 | 37001 ft | 490 kts | 39° |
| 2026-05-07 08:39 | 26.64206 | 139.77822 | 37001 ft | 490 kts | 39° |
| 2026-05-07 08:40 | 26.69498 | 139.82632 | 37001 ft | 490 kts | 39° |
| 2026-05-07 08:40 | 26.74784 | 139.87444 | 37001 ft | 490 kts | 39° |
| 2026-05-07 08:41 | 26.80036 | 139.92230 | 37001 ft | 490 kts | 39° |
| 2026-05-07 08:41 | 26.85324 | 139.97056 | 37001 ft | 490 kts | 39° |
| 2026-05-07 08:42 | 26.90604 | 140.01879 | 37001 ft | 490 kts | 39° |
| 2026-05-07 08:42 | 26.95885 | 140.06710 | 37001 ft | 490 kts | 39° |
| 2026-05-07 08:43 | 27.01166 | 140.11546 | 37001 ft | 490 kts | 39° |
| 2026-05-07 08:43 | 27.06447 | 140.16389 | 37001 ft | 490 kts | 39° |
| 2026-05-07 08:44 | 27.11687 | 140.21201 | 37001 ft | 490 kts | 39° |
| 2026-05-07 08:44 | 27.16962 | 140.26050 | 37001 ft | 490 kts | 39° |
| 2026-05-07 08:45 | 27.22236 | 140.30904 | 37001 ft | 490 kts | 39° |
| 2026-05-07 08:45 | 27.27515 | 140.35770 | 37001 ft | 490 kts | 39° |
| 2026-05-07 08:46 | 27.32785 | 140.40633 | 37001 ft | 490 kts | 39° |
| 2026-05-07 08:46 | 27.38053 | 140.45501 | 37001 ft | 490 kts | 39° |
| 2026-05-07 08:47 | 27.43318 | 140.50371 | 37001 ft | 490 kts | 39° |
| 2026-05-07 08:47 | 27.48551 | 140.55219 | 37001 ft | 490 kts | 39° |
| 2026-05-07 08:48 | 27.53813 | 140.60100 | 37001 ft | 490 kts | 39° |
| 2026-05-07 08:48 | 27.59073 | 140.64985 | 37001 ft | 490 kts | 39° |
| 2026-05-07 08:49 | 27.63446 | 140.69051 | 37001 ft | 490 kts | 39° |
| 2026-05-07 08:49 | 27.69597 | 140.74778 | 37001 ft | 490 kts | 39° |
| 2026-05-07 08:50 | 27.73967 | 140.78852 | 37001 ft | 490 kts | 39° |
| 2026-05-07 08:50 | 27.79226 | 140.83760 | 37001 ft | 490 kts | 39° |
| 2026-05-07 08:51 | 27.84479 | 140.88669 | 37001 ft | 490 kts | 39° |
| 2026-05-07 08:51 | 27.89702 | 140.93557 | 37001 ft | 490 kts | 39° |
| 2026-05-07 08:52 | 27.94951 | 140.98475 | 37001 ft | 490 kts | 39° |
| 2026-05-07 08:52 | 28.00208 | 141.03408 | 37001 ft | 490 kts | 39° |
| 2026-05-07 08:53 | 28.05427 | 141.08310 | 37001 ft | 490 kts | 39° |
| 2026-05-07 08:53 | 28.10678 | 141.13250 | 37001 ft | 490 kts | 39° |
| 2026-05-07 08:54 | 28.15920 | 141.18189 | 37001 ft | 490 kts | 40° |
| 2026-05-07 08:54 | 28.21164 | 141.23135 | 37001 ft | 490 kts | 40° |
| 2026-05-07 08:55 | 28.26435 | 141.28031 | 36988 ft | 487 kts | 33° |
| 2026-05-07 08:55 | 28.29456 | 141.29735 | 37004 ft | 486 kts | 16° |
| 2026-05-07 08:55 | 28.32777 | 141.30371 | 37008 ft | 486 kts | 0° |
| 2026-05-07 08:56 | 28.36140 | 141.30058 | 37030 ft | 487 kts | 348° |
| 2026-05-07 08:56 | 28.39355 | 141.28848 | 37141 ft | 487 kts | 334° |
| 2026-05-07 08:56 | 28.42386 | 141.27128 | 37356 ft | 488 kts | 332° |
| 2026-05-07 08:56 | 28.45395 | 141.25327 | 37626 ft | 488 kts | 332° |
| 2026-05-07 08:57 | 28.48392 | 141.23513 | 37895 ft | 487 kts | 332° |
| 2026-05-07 08:57 | 28.51393 | 141.21710 | 37939 ft | 490 kts | 332° |
| 2026-05-07 08:57 | 28.57449 | 141.18145 | 37994 ft | 489 kts | 333° |
| 2026-05-07 08:58 | 28.63456 | 141.14671 | 37994 ft | 486 kts | 333° |
| 2026-05-07 08:58 | 28.69475 | 141.11202 | 37998 ft | 484 kts | 333° |
| 2026-05-07 08:59 | 28.75482 | 141.07733 | 38002 ft | 483 kts | 333° |
| 2026-05-07 08:59 | 28.81484 | 141.04258 | 38002 ft | 484 kts | 333° |
| 2026-05-07 09:00 | 28.87493 | 141.00773 | 38003 ft | 485 kts | 333° |
| 2026-05-07 09:00 | 28.93520 | 140.97272 | 38003 ft | 486 kts | 333° |
| 2026-05-07 09:01 | 28.99524 | 140.93781 | 38002 ft | 487 kts | 333° |
| 2026-05-07 09:01 | 29.05569 | 140.90262 | 38002 ft | 488 kts | 333° |
| 2026-05-07 09:02 | 29.11632 | 140.86727 | 38001 ft | 489 kts | 333° |
| 2026-05-07 09:02 | 29.17698 | 140.83185 | 38001 ft | 489 kts | 333° |
| 2026-05-07 09:03 | 29.23719 | 140.79666 | 38001 ft | 489 kts | 333° |
| 2026-05-07 09:03 | 29.29772 | 140.76123 | 38001 ft | 488 kts | 333° |
| 2026-05-07 09:04 | 29.35823 | 140.72576 | 38001 ft | 488 kts | 332° |
| 2026-05-07 09:04 | 29.41871 | 140.69027 | 38001 ft | 488 kts | 332° |
| 2026-05-07 09:05 | 29.47918 | 140.65473 | 38001 ft | 487 kts | 332° |
| 2026-05-07 09:05 | 29.53947 | 140.61925 | 38001 ft | 487 kts | 332° |
| 2026-05-07 09:06 | 29.59938 | 140.58394 | 38001 ft | 487 kts | 332° |
| 2026-05-07 09:06 | 29.65964 | 140.54839 | 38001 ft | 487 kts | 332° |
| 2026-05-07 09:07 | 29.71988 | 140.51279 | 38001 ft | 487 kts | 332° |
| 2026-05-07 09:07 | 29.78015 | 140.47712 | 38001 ft | 487 kts | 332° |
| 2026-05-07 09:08 | 29.84045 | 140.44139 | 38001 ft | 487 kts | 332° |
| 2026-05-07 09:08 | 29.90069 | 140.40564 | 38001 ft | 487 kts | 332° |
| 2026-05-07 09:09 | 29.96092 | 140.36986 | 38001 ft | 487 kts | 332° |
| 2026-05-07 09:09 | 30.02211 | 140.33752 | 38000 ft | 487 kts | 341° |
| 2026-05-07 09:10 | 30.08697 | 140.31427 | 38008 ft | 487 kts | 343° |
| 2026-05-07 09:10 | 30.15200 | 140.29190 | 38001 ft | 488 kts | 343° |
| 2026-05-07 09:11 | 30.21701 | 140.26908 | 38001 ft | 488 kts | 342° |
| 2026-05-07 09:11 | 30.28191 | 140.24592 | 38002 ft | 488 kts | 342° |
| 2026-05-07 09:12 | 30.34645 | 140.22278 | 38001 ft | 488 kts | 342° |
| 2026-05-07 09:12 | 30.41143 | 140.19947 | 38001 ft | 488 kts | 342° |
| 2026-05-07 09:13 | 30.47638 | 140.17616 | 38001 ft | 488 kts | 342° |
| 2026-05-07 09:13 | 30.54123 | 140.15285 | 38001 ft | 488 kts | 342° |
| 2026-05-07 09:14 | 30.60611 | 140.12950 | 38001 ft | 488 kts | 342° |
| 2026-05-07 09:14 | 30.67104 | 140.10610 | 38001 ft | 488 kts | 342° |
| 2026-05-07 09:15 | 30.73588 | 140.08269 | 38001 ft | 488 kts | 342° |
| 2026-05-07 09:15 | 30.80041 | 140.05937 | 38001 ft | 488 kts | 342° |
| 2026-05-07 09:16 | 30.86529 | 140.03588 | 38001 ft | 488 kts | 342° |
| 2026-05-07 09:16 | 30.93009 | 140.01239 | 38001 ft | 488 kts | 342° |
| 2026-05-07 09:17 | 30.99512 | 139.98950 | 38000 ft | 488 kts | 346° |
| 2026-05-07 09:17 | 31.06201 | 139.97646 | 38009 ft | 488 kts | 353° |
| 2026-05-07 09:18 | 31.12906 | 139.96722 | 38002 ft | 488 kts | 353° |
| 2026-05-07 09:18 | 31.19651 | 139.95781 | 38001 ft | 488 kts | 353° |
| 2026-05-07 09:19 | 31.26391 | 139.94796 | 38002 ft | 488 kts | 352° |
| 2026-05-07 09:19 | 31.33136 | 139.93791 | 38001 ft | 488 kts | 352° |
| 2026-05-07 09:20 | 31.39887 | 139.92782 | 38001 ft | 489 kts | 352° |
| 2026-05-07 09:20 | 31.46636 | 139.91774 | 38001 ft | 489 kts | 352° |
| 2026-05-07 09:21 | 31.53386 | 139.90766 | 38001 ft | 489 kts | 352° |
| 2026-05-07 09:21 | 31.60131 | 139.89757 | 38001 ft | 489 kts | 352° |
| 2026-05-07 09:22 | 31.66840 | 139.88752 | 38001 ft | 488 kts | 352° |
| 2026-05-07 09:22 | 31.73585 | 139.87740 | 38001 ft | 488 kts | 352° |
| 2026-05-07 09:23 | 31.80329 | 139.86727 | 38001 ft | 488 kts | 352° |
| 2026-05-07 09:23 | 31.87074 | 139.85712 | 38001 ft | 488 kts | 352° |
| 2026-05-07 09:24 | 31.93817 | 139.84696 | 38001 ft | 488 kts | 352° |
| 2026-05-07 09:24 | 32.00563 | 139.83678 | 38001 ft | 488 kts | 352° |
| 2026-05-07 09:25 | 32.07301 | 139.82659 | 38001 ft | 488 kts | 352° |
| 2026-05-07 09:25 | 32.14046 | 139.81638 | 38001 ft | 488 kts | 352° |
| 2026-05-07 09:26 | 32.20740 | 139.80623 | 38001 ft | 488 kts | 352° |
| 2026-05-07 09:26 | 32.27489 | 139.79599 | 38001 ft | 488 kts | 352° |
| 2026-05-07 09:27 | 32.34227 | 139.78574 | 38001 ft | 488 kts | 352° |
| 2026-05-07 09:28 | 32.44345 | 139.77033 | 38001 ft | 488 kts | 352° |
| 2026-05-07 09:28 | 32.51097 | 139.76014 | 38001 ft | 488 kts | 352° |
| 2026-05-07 09:29 | 32.57863 | 139.74996 | 38200 ft | 491 kts | 352° |
| 2026-05-07 09:29 | 32.61251 | 139.74485 | 38480 ft | 490 kts | 352° |
| 2026-05-07 09:29 | 32.64580 | 139.73981 | 38776 ft | 488 kts | 352° |
| 2026-05-07 09:29 | 32.67955 | 139.73471 | 38932 ft | 489 kts | 352° |
| 2026-05-07 09:30 | 32.71333 | 139.72959 | 38964 ft | 489 kts | 352° |
| 2026-05-07 09:30 | 32.78103 | 139.72700 | 38990 ft | 483 kts | 3° |
| 2026-05-07 09:31 | 32.84530 | 139.73802 | 39006 ft | 480 kts | 11° |
| 2026-05-07 09:31 | 32.91055 | 139.75456 | 38999 ft | 479 kts | 12° |
| 2026-05-07 09:32 | 32.97579 | 139.77117 | 39005 ft | 479 kts | 12° |
| 2026-05-07 09:32 | 33.04076 | 139.78730 | 39005 ft | 480 kts | 11° |
| 2026-05-07 09:33 | 33.10634 | 139.80340 | 39008 ft | 482 kts | 11° |
| 2026-05-07 09:33 | 33.17217 | 139.81957 | 39004 ft | 483 kts | 11° |
| 2026-05-07 09:34 | 33.23807 | 139.83580 | 39004 ft | 484 kts | 11° |
| 2026-05-07 09:34 | 33.30414 | 139.85211 | 39003 ft | 485 kts | 11° |
| 2026-05-07 09:35 | 33.37037 | 139.86849 | 39002 ft | 486 kts | 11° |
| 2026-05-07 09:35 | 33.43664 | 139.88491 | 38999 ft | 486 kts | 11° |
| 2026-05-07 09:36 | 33.50254 | 139.90125 | 39002 ft | 486 kts | 11° |
| 2026-05-07 09:36 | 33.56881 | 139.91772 | 39001 ft | 486 kts | 11° |
| 2026-05-07 09:37 | 33.63514 | 139.93422 | 39005 ft | 486 kts | 11° |
| 2026-05-07 09:37 | 33.69024 | 139.94795 | 39005 ft | 486 kts | 11° |
| 2026-05-07 09:38 | 33.75642 | 139.96447 | 39005 ft | 486 kts | 11° |
| 2026-05-07 09:38 | 33.80061 | 139.97552 | 38294 ft | 496 kts | 11° |
| 2026-05-07 09:38 | 33.83451 | 139.98400 | 37662 ft | 495 kts | 11° |
| 2026-05-07 09:38 | 33.85684 | 139.98960 | 37199 ft | 493 kts | 11° |
| 2026-05-07 09:39 | 33.89045 | 139.99802 | 36498 ft | 491 kts | 11° |
| 2026-05-07 09:39 | 33.92385 | 140.00639 | 35780 ft | 490 kts | 11° |
| 2026-05-07 09:39 | 33.95735 | 140.01393 | 34927 ft | 490 kts | 7° |
| 2026-05-07 09:39 | 33.99132 | 140.01754 | 34068 ft | 491 kts | 2° |
| 2026-05-07 09:40 | 34.02554 | 140.01765 | 33186 ft | 491 kts | 356° |
| 2026-05-07 09:40 | 34.05961 | 140.01365 | 32264 ft | 492 kts | 353° |
| 2026-05-07 09:40 | 34.09363 | 140.00852 | 31290 ft | 493 kts | 353° |
| 2026-05-07 09:40 | 34.12773 | 140.00371 | 30407 ft | 490 kts | 355° |
| 2026-05-07 09:41 | 34.16149 | 140.00490 | 29729 ft | 484 kts | 11° |
| 2026-05-07 09:41 | 34.19312 | 140.01793 | 29087 ft | 479 kts | 27° |
| 2026-05-07 09:41 | 34.22089 | 140.03970 | 28472 ft | 473 kts | 39° |
| 2026-05-07 09:41 | 34.24337 | 140.06820 | 27853 ft | 465 kts | 53° |
| 2026-05-07 09:42 | 34.26194 | 140.10001 | 27276 ft | 460 kts | 54° |
| 2026-05-07 09:42 | 34.28030 | 140.13084 | 26677 ft | 455 kts | 54° |
| 2026-05-07 09:42 | 34.29752 | 140.16276 | 26090 ft | 451 kts | 59° |
| 2026-05-07 09:42 | 34.31209 | 140.19610 | 25500 ft | 447 kts | 66° |
| 2026-05-07 09:43 | 34.32439 | 140.23034 | 24921 ft | 442 kts | 67° |
| 2026-05-07 09:43 | 34.33632 | 140.26448 | 24344 ft | 438 kts | 67° |
| 2026-05-07 09:43 | 34.34810 | 140.29832 | 23773 ft | 434 kts | 67° |
| 2026-05-07 09:43 | 34.35984 | 140.33185 | 23207 ft | 431 kts | 67° |
| 2026-05-07 09:44 | 34.37155 | 140.36505 | 22650 ft | 427 kts | 67° |
| 2026-05-07 09:44 | 34.38322 | 140.39800 | 22092 ft | 423 kts | 67° |
| 2026-05-07 09:44 | 34.39479 | 140.43060 | 21543 ft | 420 kts | 67° |
| 2026-05-07 09:44 | 34.40625 | 140.46290 | 21009 ft | 416 kts | 67° |
| 2026-05-07 09:45 | 34.41763 | 140.49500 | 20484 ft | 412 kts | 67° |
| 2026-05-07 09:45 | 34.42888 | 140.52676 | 19963 ft | 409 kts | 67° |
| 2026-05-07 09:45 | 34.44003 | 140.55827 | 19437 ft | 405 kts | 67° |
| 2026-05-07 09:45 | 34.45108 | 140.58953 | 18914 ft | 402 kts | 67° |
| 2026-05-07 09:46 | 34.46203 | 140.62056 | 18393 ft | 398 kts | 67° |
| 2026-05-07 09:46 | 34.47332 | 140.65094 | 17860 ft | 390 kts | 60° |
| 2026-05-07 09:46 | 34.49044 | 140.67602 | 17344 ft | 388 kts | 39° |
| 2026-05-07 09:46 | 34.51361 | 140.69253 | 16891 ft | 388 kts | 21° |
| 2026-05-07 09:47 | 34.53956 | 140.70082 | 16393 ft | 395 kts | 5° |
| 2026-05-07 09:47 | 34.56721 | 140.70108 | 15862 ft | 398 kts | 358° |
| 2026-05-07 09:47 | 34.59496 | 140.70005 | 15299 ft | 397 kts | 358° |
| 2026-05-07 09:47 | 34.62246 | 140.69935 | 14741 ft | 389 kts | 357° |
| 2026-05-07 09:48 | 34.64859 | 140.69290 | 14191 ft | 382 kts | 336° |
| 2026-05-07 09:48 | 34.67083 | 140.67587 | 13684 ft | 377 kts | 317° |
| 2026-05-07 09:48 | 34.68730 | 140.65135 | 13109 ft | 375 kts | 300° |
| 2026-05-07 09:48 | 34.69771 | 140.62250 | 12571 ft | 372 kts | 286° |
| 2026-05-07 09:49 | 34.70094 | 140.59192 | 12212 ft | 357 kts | 269° |
| 2026-05-07 09:49 | 34.70046 | 140.56272 | 12037 ft | 331 kts | 268° |
| 2026-05-07 09:49 | 34.70001 | 140.53603 | 11883 ft | 301 kts | 269° |
| 2026-05-07 09:49 | 34.69970 | 140.51160 | 11788 ft | 281 kts | 269° |
| 2026-05-07 09:50 | 34.69948 | 140.48858 | 11673 ft | 271 kts | 269° |
| 2026-05-07 09:50 | 34.69934 | 140.46604 | 11561 ft | 262 kts | 269° |
| 2026-05-07 09:50 | 34.69922 | 140.44389 | 11221 ft | 263 kts | 269° |
| 2026-05-07 09:50 | 34.69912 | 140.42175 | 11127 ft | 261 kts | 269° |
| 2026-05-07 09:51 | 34.69901 | 140.39944 | 11133 ft | 268 kts | 269° |
| 2026-05-07 09:51 | 34.70101 | 140.37680 | 11116 ft | 273 kts | 290° |
| 2026-05-07 09:51 | 34.71156 | 140.35781 | 11124 ft | 276 kts | 319° |
| 2026-05-07 09:51 | 34.72752 | 140.34520 | 11130 ft | 274 kts | 329° |
| 2026-05-07 09:52 | 34.74422 | 140.33361 | 11127 ft | 277 kts | 330° |
| 2026-05-07 09:52 | 34.76102 | 140.32197 | 11122 ft | 279 kts | 329° |
| 2026-05-07 09:52 | 34.77791 | 140.31024 | 11119 ft | 279 kts | 329° |
| 2026-05-07 09:52 | 34.79466 | 140.29854 | 11101 ft | 275 kts | 329° |
| 2026-05-07 09:53 | 34.81110 | 140.28700 | 11103 ft | 271 kts | 329° |
| 2026-05-07 09:53 | 34.82751 | 140.27544 | 11127 ft | 272 kts | 329° |
| 2026-05-07 09:53 | 34.84394 | 140.26384 | 11123 ft | 274 kts | 329° |
| 2026-05-07 09:53 | 34.86026 | 140.25232 | 11119 ft | 275 kts | 329° |
| 2026-05-07 09:54 | 34.87705 | 140.24045 | 11128 ft | 276 kts | 329° |
| 2026-05-07 09:54 | 34.89349 | 140.22882 | 11124 ft | 277 kts | 329° |
| 2026-05-07 09:54 | 34.91017 | 140.21702 | 11119 ft | 277 kts | 329° |
| 2026-05-07 09:54 | 34.92684 | 140.20522 | 11118 ft | 277 kts | 329° |
| 2026-05-07 09:55 | 34.94247 | 140.19215 | 11095 ft | 270 kts | 311° |
| 2026-05-07 09:55 | 34.95190 | 140.17270 | 11112 ft | 267 kts | 286° |
| 2026-05-07 09:55 | 34.95609 | 140.15069 | 11130 ft | 269 kts | 281° |
| 2026-05-07 09:55 | 34.95998 | 140.12811 | 11122 ft | 274 kts | 281° |
| 2026-05-07 09:56 | 34.96395 | 140.10535 | 11124 ft | 273 kts | 282° |
| 2026-05-07 09:56 | 34.96794 | 140.08278 | 11102 ft | 272 kts | 282° |
| 2026-05-07 09:56 | 34.97192 | 140.06032 | 11115 ft | 270 kts | 282° |
| 2026-05-07 09:56 | 34.97591 | 140.03800 | 11103 ft | 268 kts | 283° |
| 2026-05-07 09:57 | 34.98272 | 140.01716 | 11131 ft | 267 kts | 300° |
| 2026-05-07 09:57 | 34.99303 | 139.99785 | 11128 ft | 275 kts | 304° |
| 2026-05-07 09:57 | 35.00380 | 139.97889 | 11127 ft | 276 kts | 304° |
| 2026-05-07 09:57 | 35.01456 | 139.95950 | 11116 ft | 275 kts | 303° |
| 2026-05-07 09:58 | 35.02509 | 139.94008 | 11110 ft | 274 kts | 303° |
| 2026-05-07 09:58 | 35.03548 | 139.92071 | 11113 ft | 272 kts | 302° |
| 2026-05-07 09:58 | 35.04590 | 139.90144 | 11099 ft | 269 kts | 307° |
| 2026-05-07 09:58 | 35.05994 | 139.88688 | 11119 ft | 269 kts | 335° |
| 2026-05-07 09:59 | 35.07831 | 139.88231 | 11127 ft | 274 kts | 4° |
| 2026-05-07 09:59 | 35.09649 | 139.88855 | 10978 ft | 275 kts | 30° |
| 2026-05-07 09:59 | 35.11123 | 139.90319 | 10612 ft | 274 kts | 44° |
| 2026-05-07 09:59 | 35.12484 | 139.91947 | 10288 ft | 273 kts | 45° |
| 2026-05-07 10:00 | 35.13825 | 139.93579 | 10016 ft | 271 kts | 45° |
| 2026-05-07 10:00 | 35.15158 | 139.95201 | 9706 ft | 270 kts | 45° |
| 2026-05-07 10:00 | 35.16487 | 139.96815 | 9404 ft | 269 kts | 45° |
| 2026-05-07 10:00 | 35.17810 | 139.98416 | 9093 ft | 267 kts | 45° |
| 2026-05-07 10:01 | 35.19133 | 140.00012 | 8802 ft | 266 kts | 44° |
| 2026-05-07 10:01 | 35.20449 | 140.01597 | 8509 ft | 265 kts | 44° |
| 2026-05-07 10:01 | 35.21760 | 140.03175 | 8226 ft | 263 kts | 44° |
| 2026-05-07 10:01 | 35.23043 | 140.04717 | 8162 ft | 255 kts | 44° |
| 2026-05-07 10:02 | 35.24314 | 140.06244 | 8126 ft | 258 kts | 44° |
| 2026-05-07 10:02 | 35.25610 | 140.07803 | 8133 ft | 264 kts | 44° |
| 2026-05-07 10:02 | 35.26927 | 140.09386 | 8126 ft | 266 kts | 44° |
| 2026-05-07 10:02 | 35.28245 | 140.10972 | 8111 ft | 265 kts | 44° |
| 2026-05-07 10:03 | 35.29554 | 140.12546 | 8104 ft | 263 kts | 44° |
| 2026-05-07 10:03 | 35.30840 | 140.14093 | 8113 ft | 262 kts | 44° |
| 2026-05-07 10:03 | 35.32136 | 140.15654 | 8114 ft | 261 kts | 44° |
| 2026-05-07 10:03 | 35.33428 | 140.17210 | 8115 ft | 260 kts | 44° |
| 2026-05-07 10:04 | 35.34720 | 140.18767 | 8118 ft | 261 kts | 44° |
| 2026-05-07 10:04 | 35.36013 | 140.20325 | 8120 ft | 261 kts | 44° |
| 2026-05-07 10:04 | 35.37502 | 140.21519 | 8109 ft | 259 kts | 15° |
| 2026-05-07 10:04 | 35.39291 | 140.21686 | 7991 ft | 258 kts | 352° |
| 2026-05-07 10:05 | 35.40562 | 140.21431 | 7756 ft | 260 kts | 349° |
| 2026-05-07 10:05 | 35.41989 | 140.21113 | 7487 ft | 261 kts | 349° |
| 2026-05-07 10:05 | 35.43769 | 140.20710 | 7198 ft | 259 kts | 349° |
| 2026-05-07 10:05 | 35.45537 | 140.20310 | 6919 ft | 258 kts | 349° |
| 2026-05-07 10:06 | 35.47274 | 140.19921 | 6624 ft | 257 kts | 349° |
| 2026-05-07 10:06 | 35.49052 | 140.19525 | 6327 ft | 256 kts | 349° |
| 2026-05-07 10:06 | 35.50798 | 140.19139 | 6038 ft | 255 kts | 349° |
| 2026-05-07 10:06 | 35.52515 | 140.18761 | 5755 ft | 253 kts | 349° |
| 2026-05-07 10:07 | 35.54247 | 140.18381 | 5469 ft | 252 kts | 349° |
| 2026-05-07 10:07 | 35.55974 | 140.18003 | 5187 ft | 251 kts | 349° |
| 2026-05-07 10:07 | 35.57694 | 140.17627 | 4899 ft | 250 kts | 349° |
| 2026-05-07 10:07 | 35.59406 | 140.17253 | 4616 ft | 249 kts | 349° |
| 2026-05-07 10:08 | 35.61110 | 140.16881 | 4338 ft | 248 kts | 349° |
| 2026-05-07 10:08 | 35.62798 | 140.16512 | 4190 ft | 242 kts | 349° |
| 2026-05-07 10:08 | 35.64445 | 140.16152 | 4141 ft | 241 kts | 349° |
| 2026-05-07 10:08 | 35.66118 | 140.15785 | 4127 ft | 246 kts | 348° |
| 2026-05-07 10:09 | 35.67646 | 140.14987 | 4100 ft | 234 kts | 318° |
| 2026-05-07 10:09 | 35.68760 | 140.13616 | 4114 ft | 221 kts | 313° |
| 2026-05-07 10:09 | 35.69824 | 140.12295 | 4100 ft | 214 kts | 314° |
| 2026-05-07 10:09 | 35.70871 | 140.11000 | 4106 ft | 213 kts | 314° |
| 2026-05-07 10:10 | 35.71919 | 140.09705 | 4116 ft | 213 kts | 313° |
| 2026-05-07 10:10 | 35.72712 | 140.08247 | 4113 ft | 200 kts | 286° |
| 2026-05-07 10:10 | 35.72861 | 140.06635 | 4121 ft | 184 kts | 268° |
| 2026-05-07 10:10 | 35.72963 | 140.05095 | 4114 ft | 178 kts | 276° |
| 2026-05-07 10:11 | 35.72861 | 140.03595 | 4132 ft | 178 kts | 253° |
| 2026-05-07 10:11 | 35.72446 | 140.02129 | 4117 ft | 185 kts | 247° |
| 2026-05-07 10:11 | 35.71873 | 140.00734 | 4130 ft | 183 kts | 239° |
| 2026-05-07 10:11 | 35.71184 | 139.99482 | 4096 ft | 168 kts | 232° |
| 2026-05-07 10:12 | 35.70383 | 139.98552 | 4102 ft | 151 kts | 217° |
| 2026-05-07 10:12 | 35.69550 | 139.97785 | 4091 ft | 148 kts | 226° |
| 2026-05-07 10:12 | 35.68766 | 139.96944 | 4075 ft | 155 kts | 211° |
| 2026-05-07 10:12 | 35.67792 | 139.96342 | 3734 ft | 153 kts | 206° |
| 2026-05-07 10:13 | 35.66872 | 139.95786 | 3507 ft | 145 kts | 208° |
| 2026-05-07 10:13 | 35.65990 | 139.95161 | 3234 ft | 147 kts | 212° |
| 2026-05-07 10:13 | 35.65134 | 139.94463 | 2919 ft | 148 kts | 215° |
| 2026-05-07 10:13 | 35.64311 | 139.93718 | 2599 ft | 145 kts | 218° |
| 2026-05-07 10:14 | 35.63554 | 139.92945 | 2341 ft | 141 kts | 221° |
| 2026-05-07 10:14 | 35.62808 | 139.92149 | 2219 ft | 143 kts | 222° |
| 2026-05-07 10:14 | 35.62076 | 139.91302 | 2171 ft | 148 kts | 223° |
| 2026-05-07 10:14 | 35.61332 | 139.90433 | 2051 ft | 146 kts | 224° |
| 2026-05-07 10:15 | 35.60599 | 139.89575 | 1887 ft | 147 kts | 223° |
| 2026-05-07 10:15 | 35.59841 | 139.88715 | 1650 ft | 146 kts | 223° |
| 2026-05-07 10:15 | 35.59098 | 139.87870 | 1324 ft | 145 kts | 222° |
| 2026-05-07 10:15 | 35.58372 | 139.87073 | 1047 ft | 139 kts | 222° |
| 2026-05-07 10:16 | 35.57652 | 139.86278 | 908 ft | 139 kts | 222° |
| 2026-05-07 10:16 | 35.56934 | 139.85479 | 846 ft | 140 kts | 223° |
| 2026-05-07 10:16 | 35.56200 | 139.84650 | 679 ft | 147 kts | 222° |
| 2026-05-07 10:16 | 35.55466 | 139.83796 | 489 ft | 143 kts | 223° |
| 2026-05-07 10:17 | 35.54739 | 139.82987 | 290 ft | 139 kts | 223° |
| 2026-05-07 10:17 | 35.54027 | 139.82175 | 108 ft | 140 kts | 222° |
| 2026-05-07 10:17 | 35.53346 | 139.81410 | 51 ft | 111 kts | 222° |
| 2026-05-07 10:17 | 35.52999 | 139.81009 | 47 ft | 45 kts | 233° |
| 2026-05-07 10:18 | 35.52894 | 139.80736 | 47 ft | 20 kts | 249° |
| 2026-05-07 10:18 | 35.52885 | 139.80694 | 48 ft | 1 kts | 261° |
| 2026-05-07 10:18 | 35.52884 | 139.80682 | 49 ft | 2 kts | 268° |
| 2026-05-07 10:18 | 35.52888 | 139.80660 | 49 ft | 3 kts | 295° |
| 2026-05-07 10:19 | 35.52911 | 139.80654 | 49 ft | 4 kts | 7° |
| 2026-05-07 10:19 | 35.52946 | 139.80661 | 52 ft | 6 kts | 9° |
| 2026-05-07 10:19 | 35.52988 | 139.80655 | 50 ft | 7 kts | 341° |
| 2026-05-07 10:19 | 35.53032 | 139.80630 | 50 ft | 8 kts | 332° |
| 2026-05-07 10:20 | 35.53081 | 139.80597 | 47 ft | 9 kts | 331° |
| 2026-05-07 10:20 | 35.53139 | 139.80556 | 47 ft | 11 kts | 330° |
| 2026-05-07 10:20 | 35.53212 | 139.80505 | 47 ft | 14 kts | 330° |
| 2026-05-07 10:20 | 35.53303 | 139.80441 | 48 ft | 16 kts | 330° |
| 2026-05-07 10:21 | 35.53409 | 139.80365 | 45 ft | 19 kts | 329° |
| 2026-05-07 10:21 | 35.53528 | 139.80281 | 40 ft | 20 kts | 329° |
| 2026-05-07 10:21 | 35.53654 | 139.80199 | 38 ft | 21 kts | 343° |
| 2026-05-07 10:21 | 35.53791 | 139.80178 | 36 ft | 16 kts | 7° |
| 2026-05-07 10:22 | 35.53871 | 139.80270 | 37 ft | 16 kts | 42° |
| 2026-05-07 10:22 | 35.53973 | 139.80258 | 37 ft | 16 kts | 329° |
| 2026-05-07 10:22 | 35.54069 | 139.80190 | 36 ft | 16 kts | 330° |
| 2026-05-07 10:22 | 35.54164 | 139.80121 | 36 ft | 16 kts | 328° |
| 2026-05-07 10:23 | 35.54260 | 139.80053 | 36 ft | 16 kts | 330° |
| 2026-05-07 10:23 | 35.54356 | 139.79985 | 36 ft | 16 kts | 330° |
| 2026-05-07 10:23 | 35.54452 | 139.79917 | 36 ft | 16 kts | 330° |
| 2026-05-07 10:23 | 35.54548 | 139.79849 | 36 ft | 16 kts | 330° |
| 2026-05-07 10:24 | 35.54644 | 139.79781 | 36 ft | 16 kts | 330° |
| 2026-05-07 10:24 | 35.54739 | 139.79714 | 36 ft | 16 kts | 330° |
| 2026-05-07 10:24 | 35.54835 | 139.79646 | 35 ft | 16 kts | 330° |
| 2026-05-07 10:24 | 35.54931 | 139.79578 | 35 ft | 16 kts | 330° |
| 2026-05-07 10:25 | 35.55027 | 139.79510 | 35 ft | 16 kts | 329° |
| 2026-05-07 10:25 | 35.55109 | 139.79432 | 35 ft | 13 kts | 294° |
| 2026-05-07 10:25 | 35.55091 | 139.79339 | 35 ft | 8 kts | 244° |
| 2026-05-07 10:25 | 35.55064 | 139.79280 | 35 ft | 8 kts | 239° |
| 2026-05-07 10:26 | 35.55038 | 139.79226 | 35 ft | 7 kts | 236° |
| 2026-05-07 10:26 | 35.55015 | 139.79196 | 35 ft | 8 kts | 214° |
| 2026-05-07 10:26 | 35.54963 | 139.79205 | 35 ft | 8 kts | 151° |
| 2026-05-07 10:26 | 35.54948 | 139.79219 | 35 ft | 0 kts | 142° |
| 2026-05-07 10:27 | 35.54947 | 139.79219 | 35 ft | 0 kts | 142° |